Time;durP1;ratioP1;P1;durP2;ratioP2;P2;SDS_P1;SDS_P2;PMS_P1;PMS_P2;Temp;Humidity;BMP_temperature;BMP_pressure;BME280_temperature;BME280_humidity;BME280_pressure;Samples;Min_cycle;Max_cycle;Signal;HPM_P1;HPM_P2
2022/07/09 00:01:23;;;;;;;9.38;4.50;;;;;;;;;;6186248;28;20232;-69
2022/07/09 00:04:44;;;;;;;10.93;4.78;;;;;;;;;;6193320;28;20225;-69
2022/07/09 00:08:05;;;;;;;10.55;4.57;;;;;;;;;;6224300;28;20629;-69
2022/07/09 00:11:25;;;;;;;5.82;3.40;;;;;;;;;;6211983;28;20323;-69
2022/07/09 00:14:46;;;;;;;14.55;4.80;;;;;;;;;;6222013;28;20236;-69
2022/07/09 00:18:08;;;;;;;9.95;4.45;;;;;;;;;;6207959;28;20531;-68
2022/07/09 00:21:29;;;;;;;8.82;4.20;;;;;;;;;;6202216;28;20233;-69
2022/07/09 00:24:49;;;;;;;12.20;5.13;;;;;;;;;;6220071;28;20228;-69
2022/07/09 00:28:10;;;;;;;7.85;4.38;;;;;;;;;;6222194;28;20240;-69
2022/07/09 00:31:31;;;;;;;9.20;4.15;;;;;;;;;;6212285;28;20228;-69
2022/07/09 00:34:52;;;;;;;7.75;4.03;;;;;;;;;;6223425;28;20237;-69
2022/07/09 00:38:13;;;;;;;8.25;4.15;;;;;;;;;;6217149;28;20237;-68
2022/07/09 00:41:34;;;;;;;6.35;4.20;;;;;;;;;;6215843;28;20228;-69
2022/07/09 00:44:54;;;;;;;6.32;4.45;;;;;;;;;;6218798;28;20249;-69
2022/07/09 00:48:15;;;;;;;10.67;4.30;;;;;;;;;;6216039;28;20855;-68
2022/07/09 00:51:37;;;;;;;9.02;4.30;;;;;;;;;;6217783;28;20546;-69
2022/07/09 00:55:00;;;;;;;6.10;4.25;;;;;;;;;;6218761;28;20232;-69
2022/07/09 00:58:21;;;;;;;11.93;5.65;;;;;;;;;;6216610;28;20327;-68
2022/07/09 01:01:42;;;;;;;6.63;3.28;;;;;;;;;;6220228;28;20244;-68
2022/07/09 01:05:03;;;;;;;8.38;4.55;;;;;;;;;;6219117;28;20327;-69
2022/07/09 01:08:25;;;;;;;6.63;4.05;;;;;;;;;;6225719;28;20926;-69
2022/07/09 01:11:47;;;;;;;8.70;4.45;;;;;;;;;;6219204;28;20236;-69
2022/07/09 01:15:08;;;;;;;12.32;5.13;;;;;;;;;;6218531;28;20236;-69
2022/07/09 01:18:29;;;;;;;10.50;4.68;;;;;;;;;;6215430;28;20236;-69
2022/07/09 01:21:51;;;;;;;9.07;3.85;;;;;;;;;;6214636;28;20256;-69
2022/07/09 01:25:13;;;;;;;10.18;4.55;;;;;;;;;;6222255;28;20232;-69
2022/07/09 01:28:34;;;;;;;10.50;4.55;;;;;;;;;;6221429;28;20220;-69
2022/07/09 01:31:54;;;;;;;13.32;5.50;;;;;;;;;;6218255;28;20794;-69
2022/07/09 01:35:15;;;;;;;6.55;4.55;;;;;;;;;;6220515;28;20324;-70
2022/07/09 01:38:37;;;;;;;10.02;4.57;;;;;;;;;;6218546;28;20240;-69
2022/07/09 01:41:58;;;;;;;10.27;4.93;;;;;;;;;;6218434;28;20232;-69
2022/07/09 01:45:18;;;;;;;8.10;5.25;;;;;;;;;;6220019;28;20736;-68
2022/07/09 01:48:42;;;;;;;8.87;5.40;;;;;;;;;;6213509;28;20938;-69
2022/07/09 01:52:04;;;;;;;8.93;4.15;;;;;;;;;;6216686;28;20315;-69
2022/07/09 01:55:26;;;;;;;8.23;3.95;;;;;;;;;;6223699;28;20331;-69
2022/07/09 01:58:46;;;;;;;8.63;4.60;;;;;;;;;;6219705;28;20889;-68
2022/07/09 02:02:07;;;;;;;10.43;5.65;;;;;;;;;;6215202;28;20263;-68
2022/07/09 02:05:28;;;;;;;9.88;5.05;;;;;;;;;;6220707;28;20628;-69
2022/07/09 02:08:50;;;;;;;11.25;5.55;;;;;;;;;;6221190;28;20228;-70
2022/07/09 02:12:11;;;;;;;9.37;4.87;;;;;;;;;;6210047;28;20228;-69
2022/07/09 02:15:32;;;;;;;13.18;5.47;;;;;;;;;;6219478;28;20232;-68
2022/07/09 02:18:53;;;;;;;10.03;5.13;;;;;;;;;;6221919;28;20228;-69
2022/07/09 02:22:13;;;;;;;8.23;4.80;;;;;;;;;;6220589;28;20232;-69
2022/07/09 02:25:33;;;;;;;10.10;5.00;;;;;;;;;;6217410;28;20264;-69
2022/07/09 02:28:56;;;;;;;11.10;5.27;;;;;;;;;;6218843;28;20252;-69
2022/07/09 02:32:16;;;;;;;9.77;4.60;;;;;;;;;;6220971;28;20272;-68
2022/07/09 02:35:36;;;;;;;11.40;5.20;;;;;;;;;;6221660;28;20232;-68
2022/07/09 02:38:57;;;;;;;7.97;4.83;;;;;;;;;;6221729;28;20548;-68
2022/07/09 02:42:18;;;;;;;9.47;4.53;;;;;;;;;;6221120;28;20311;-69
2022/07/09 02:45:40;;;;;;;8.43;4.17;;;;;;;;;;6214537;28;20687;-70
2022/07/09 02:49:00;;;;;;;7.03;4.57;;;;;;;;;;6227571;28;20228;-69
2022/07/09 02:52:21;;;;;;;8.30;4.93;;;;;;;;;;6220006;28;20577;-68
2022/07/09 02:55:42;;;;;;;6.70;4.53;;;;;;;;;;6219457;28;20311;-69
2022/07/09 02:59:02;;;;;;;9.57;5.73;;;;;;;;;;6218657;28;20248;-69
2022/07/09 03:02:24;;;;;;;9.18;4.97;;;;;;;;;;6216300;28;20241;-69
2022/07/09 03:05:45;;;;;;;6.13;4.15;;;;;;;;;;6214833;28;21744;-69
2022/07/09 03:09:06;;;;;;;8.83;4.70;;;;;;;;;;6220509;28;20252;-69
2022/07/09 03:12:27;;;;;;;8.30;4.63;;;;;;;;;;6221527;28;20260;-69
2022/07/09 03:15:49;;;;;;;11.20;5.03;;;;;;;;;;6217067;28;20224;-69
2022/07/09 03:19:11;;;;;;;9.18;5.93;;;;;;;;;;6216564;28;20233;-69
2022/07/09 03:22:31;;;;;;;10.85;4.10;;;;;;;;;;6224518;28;20598;-69
2022/07/09 03:25:52;;;;;;;9.97;5.23;;;;;;;;;;6225397;28;20255;-68
2022/07/09 03:29:13;;;;;;;8.80;5.20;;;;;;;;;;6220462;28;20228;-69
2022/07/09 03:32:33;;;;;;;8.90;5.67;;;;;;;;;;6223249;28;20228;-69
2022/07/09 03:35:56;;;;;;;10.80;5.53;;;;;;;;;;6223418;28;20220;-68
2022/07/09 03:39:16;;;;;;;10.50;5.93;;;;;;;;;;6218770;28;20229;-68
2022/07/09 03:42:37;;;;;;;11.45;5.15;;;;;;;;;;6222719;28;20224;-69
2022/07/09 03:45:58;;;;;;;9.67;4.67;;;;;;;;;;6220950;28;20232;-68
2022/07/09 03:49:19;;;;;;;12.03;5.80;;;;;;;;;;6217380;28;20232;-68
2022/07/09 03:52:41;;;;;;;9.20;4.87;;;;;;;;;;6230920;28;20422;-68
2022/07/09 03:56:01;;;;;;;11.43;6.18;;;;;;;;;;6219441;28;20740;-69
2022/07/09 03:59:22;;;;;;;8.60;4.75;;;;;;;;;;6221949;28;20280;-69
2022/07/09 04:02:43;;;;;;;13.07;5.70;;;;;;;;;;6221016;28;20232;-69
2022/07/09 04:06:04;;;;;;;8.02;5.38;;;;;;;;;;6216926;28;20233;-70
2022/07/09 04:09:25;;;;;;;9.45;5.35;;;;;;;;;;6222509;28;20229;-69
2022/07/09 04:12:46;;;;;;;9.70;5.33;;;;;;;;;;6224466;28;20228;-69
2022/07/09 04:16:07;;;;;;;9.38;5.53;;;;;;;;;;6220159;28;20327;-69
2022/07/09 04:19:27;;;;;;;8.60;5.97;;;;;;;;;;6222362;28;20770;-69
2022/07/09 04:22:48;;;;;;;7.85;5.07;;;;;;;;;;6220234;28;20212;-68
2022/07/09 04:26:10;;;;;;;7.10;5.07;;;;;;;;;;6218440;28;20228;-69
2022/07/09 04:29:30;;;;;;;7.28;4.80;;;;;;;;;;6221020;28;20224;-69
2022/07/09 04:32:51;;;;;;;9.80;4.83;;;;;;;;;;6221766;28;20270;-69
2022/07/09 04:36:11;;;;;;;8.57;5.83;;;;;;;;;;6208563;28;20248;-69
2022/07/09 04:39:32;;;;;;;9.00;4.97;;;;;;;;;;6220174;28;20610;-69
2022/07/09 04:42:54;;;;;;;6.53;4.63;;;;;;;;;;6225779;28;20224;-68
2022/07/09 04:46:16;;;;;;;12.80;5.18;;;;;;;;;;6227215;28;20578;-69
2022/07/09 04:49:36;;;;;;;7.87;4.67;;;;;;;;;;6223624;28;20236;-69
2022/07/09 04:52:57;;;;;;;8.70;4.40;;;;;;;;;;6226622;28;20240;-68
2022/07/09 04:56:18;;;;;;;7.23;4.83;;;;;;;;;;6221967;28;20356;-69
2022/07/09 04:59:40;;;;;;;7.57;4.78;;;;;;;;;;6221846;28;20507;-68
2022/07/09 05:03:01;;;;;;;7.33;4.60;;;;;;;;;;6219667;28;20225;-69
2022/07/09 05:06:21;;;;;;;5.67;3.90;;;;;;;;;;6222453;28;20652;-69
2022/07/09 05:09:42;;;;;;;5.90;3.50;;;;;;;;;;6223777;28;20228;-69
2022/07/09 05:13:03;;;;;;;7.95;4.65;;;;;;;;;;6227216;28;20236;-69
2022/07/09 05:16:25;;;;;;;4.50;3.77;;;;;;;;;;6222035;28;23094;-69
2022/07/09 05:19:45;;;;;;;5.37;3.57;;;;;;;;;;6223423;28;20232;-69
2022/07/09 05:23:06;;;;;;;5.75;3.55;;;;;;;;;;6223689;28;20232;-70
2022/07/09 05:26:29;;;;;;;4.05;3.35;;;;;;;;;;6220378;28;20229;-69
2022/07/09 05:29:50;;;;;;;5.13;3.70;;;;;;;;;;6222274;28;20248;-69
2022/07/09 05:33:12;;;;;;;4.82;3.60;;;;;;;;;;6227329;28;20833;-69
2022/07/09 05:36:32;;;;;;;4.05;3.45;;;;;;;;;;6222761;28;20324;-68
2022/07/09 05:39:52;;;;;;;3.55;3.20;;;;;;;;;;6221515;28;20229;-70
2022/07/09 05:43:13;;;;;;;8.30;4.13;;;;;;;;;;6211328;28;20633;-67
2022/07/09 05:46:34;;;;;;;5.45;3.83;;;;;;;;;;6205605;28;20233;-69
2022/07/09 05:49:55;;;;;;;5.40;3.75;;;;;;;;;;6220810;28;20229;-70
2022/07/09 05:53:16;;;;;;;9.30;4.40;;;;;;;;;;6216737;28;20224;-69
2022/07/09 05:56:38;;;;;;;6.57;4.22;;;;;;;;;;6216316;28;20229;-68
2022/07/09 05:59:59;;;;;;;5.18;4.03;;;;;;;;;;6216583;28;20614;-69
2022/07/09 06:03:19;;;;;;;8.07;4.00;;;;;;;;;;6215125;28;20228;-68
2022/07/09 06:06:41;;;;;;;6.13;4.57;;;;;;;;;;6214695;28;20340;-69
2022/07/09 06:10:02;;;;;;;5.70;4.35;;;;;;;;;;6214876;28;20661;-69
2022/07/09 06:13:22;;;;;;;4.17;3.43;;;;;;;;;;6214166;28;20229;-68
2022/07/09 06:16:46;;;;;;;8.43;3.95;;;;;;;;;;6219236;28;20270;-70
2022/07/09 06:20:07;;;;;;;6.13;4.00;;;;;;;;;;6215229;28;20240;-69
2022/07/09 06:23:29;;;;;;;11.73;3.90;;;;;;;;;;6215657;28;20228;-70
2022/07/09 06:26:49;;;;;;;4.30;3.90;;;;;;;;;;6216196;28;20240;-69
2022/07/09 06:30:10;;;;;;;8.23;5.10;;;;;;;;;;6218849;28;20221;-68
2022/07/09 06:33:31;;;;;;;7.05;4.13;;;;;;;;;;6216227;28;20224;-69
2022/07/09 06:36:52;;;;;;;4.97;3.85;;;;;;;;;;6219194;28;20509;-69
2022/07/09 06:40:14;;;;;;;7.53;4.88;;;;;;;;;;6216374;28;20236;-68
2022/07/09 06:43:34;;;;;;;7.30;4.30;;;;;;;;;;6218357;28;20228;-69
2022/07/09 06:46:55;;;;;;;7.23;5.10;;;;;;;;;;6218853;28;20229;-68
2022/07/09 06:50:16;;;;;;;7.45;4.43;;;;;;;;;;6218383;28;20216;-70
2022/07/09 06:53:37;;;;;;;6.10;4.53;;;;;;;;;;6218489;28;20514;-68
2022/07/09 06:56:59;;;;;;;4.10;3.72;;;;;;;;;;6220020;28;21692;-69
2022/07/09 07:00:19;;;;;;;4.30;3.53;;;;;;;;;;6223032;28;20260;-68
2022/07/09 07:03:40;;;;;;;4.28;3.05;;;;;;;;;;6212102;28;20342;-69
2022/07/09 07:07:01;;;;;;;4.32;3.85;;;;;;;;;;6223051;28;20251;-69
2022/07/09 07:10:21;;;;;;;5.38;3.25;;;;;;;;;;6218139;28;20618;-69
2022/07/09 07:13:43;;;;;;;3.60;3.08;;;;;;;;;;6220596;28;20258;-70
2022/07/09 07:17:04;;;;;;;5.28;2.47;;;;;;;;;;6222511;28;20240;-69
2022/07/09 07:20:25;;;;;;;11.43;3.53;;;;;;;;;;6216472;28;20771;-68
2022/07/09 07:23:46;;;;;;;4.38;3.72;;;;;;;;;;6220669;28;20672;-69
2022/07/09 07:27:07;;;;;;;3.53;3.00;;;;;;;;;;6219655;28;20291;-69
2022/07/09 07:30:32;;;;;;;2.95;2.65;;;;;;;;;;6218652;28;20403;-69
2022/07/09 07:33:53;;;;;;;3.15;2.85;;;;;;;;;;6219559;28;20233;-68
2022/07/09 07:37:13;;;;;;;6.00;2.80;;;;;;;;;;6221008;28;20575;-69
2022/07/09 07:40:34;;;;;;;5.75;2.92;;;;;;;;;;6219723;28;20312;-69
2022/07/09 07:43:54;;;;;;;5.25;3.00;;;;;;;;;;6218791;28;22173;-69
2022/07/09 07:47:16;;;;;;;3.97;2.83;;;;;;;;;;6214040;28;20232;-69
2022/07/09 07:50:38;;;;;;;4.10;2.95;;;;;;;;;;6226601;28;20233;-69
2022/07/09 07:53:59;;;;;;;4.88;2.55;;;;;;;;;;6222166;28;20508;-69
2022/07/09 07:57:19;;;;;;;3.22;2.42;;;;;;;;;;6221511;28;20229;-69
2022/07/09 08:00:40;;;;;;;4.43;2.88;;;;;;;;;;6227171;28;20876;-69
2022/07/09 08:04:02;;;;;;;4.20;2.58;;;;;;;;;;6219911;28;20252;-68
2022/07/09 08:07:23;;;;;;;6.55;3.20;;;;;;;;;;6222672;28;20633;-69
2022/07/09 08:10:43;;;;;;;3.83;2.05;;;;;;;;;;6217490;28;20228;-69
2022/07/09 08:14:05;;;;;;;4.47;2.00;;;;;;;;;;6218102;28;20311;-69
2022/07/09 08:17:25;;;;;;;3.65;2.25;;;;;;;;;;6218948;28;20241;-69
2022/07/09 08:20:49;;;;;;;2.45;1.90;;;;;;;;;;6214342;28;20333;-67
2022/07/09 08:24:09;;;;;;;4.40;2.55;;;;;;;;;;6218523;28;20236;-68
2022/07/09 08:27:30;;;;;;;4.90;2.63;;;;;;;;;;6216437;28;21821;-68
2022/07/09 08:30:51;;;;;;;4.53;2.50;;;;;;;;;;6206675;28;20272;-68
2022/07/09 08:34:12;;;;;;;3.60;2.30;;;;;;;;;;6209807;28;20225;-67
2022/07/09 08:37:34;;;;;;;3.33;2.15;;;;;;;;;;6211619;28;20233;-68
2022/07/09 08:41:00;;;;;;;2.38;1.92;;;;;;;;;;6199094;28;20442;-68
2022/07/09 08:44:21;;;;;;;2.50;2.30;;;;;;;;;;6205937;28;20324;-68
2022/07/09 08:47:42;;;;;;;5.50;2.63;;;;;;;;;;6213551;28;20236;-68
2022/07/09 08:51:03;;;;;;;3.08;1.95;;;;;;;;;;6221345;28;20622;-68
2022/07/09 08:54:25;;;;;;;3.67;1.92;;;;;;;;;;6219862;28;20500;-68
2022/07/09 08:57:46;;;;;;;2.67;1.90;;;;;;;;;;6220620;28;20241;-68
2022/07/09 09:01:07;;;;;;;3.70;1.48;;;;;;;;;;6222617;28;20512;-68
2022/07/09 09:04:28;;;;;;;2.15;1.73;;;;;;;;;;6217194;28;20229;-68
2022/07/09 09:07:48;;;;;;;2.90;1.40;;;;;;;;;;6216854;28;20236;-67
2022/07/09 09:37:29;;;;;;;3.40;1.50;;;;;;;;;;6209153;28;20533;-69
2022/07/09 09:40:49;;;;;;;3.35;1.27;;;;;;;;;;6221574;28;20228;-68
2022/07/09 09:44:11;;;;;;;2.97;2.67;;;;;;;;;;6224235;28;20220;-70
2022/07/09 09:47:33;;;;;;;1.77;1.50;;;;;;;;;;6217138;28;20236;-69
2022/07/09 09:50:55;;;;;;;2.50;1.20;;;;;;;;;;6222903;28;20232;-68
2022/07/09 09:54:18;;;;;;;2.72;1.10;;;;;;;;;;6208946;28;20614;-71
2022/07/09 09:57:38;;;;;;;1.02;0.95;;;;;;;;;;6222778;28;20257;-70
2022/07/09 10:00:59;;;;;;;3.80;1.70;;;;;;;;;;6215599;28;20233;-68
2022/07/09 10:04:21;;;;;;;2.47;1.10;;;;;;;;;;6216750;28;20232;-68
2022/07/09 10:07:42;;;;;;;1.85;0.95;;;;;;;;;;6221808;28;20252;-68
2022/07/09 10:11:04;;;;;;;1.77;1.27;;;;;;;;;;6215321;28;20237;-71
2022/07/09 10:14:31;;;;;;;1.42;1.10;;;;;;;;;;6225326;28;20232;-69
2022/07/09 10:17:52;;;;;;;1.30;1.20;;;;;;;;;;6220796;28;20237;-69
2022/07/09 10:21:12;;;;;;;2.22;1.67;;;;;;;;;;6217906;28;20259;-70
2022/07/09 10:24:35;;;;;;;2.33;1.30;;;;;;;;;;6223350;28;20682;-69
2022/07/09 10:27:56;;;;;;;4.50;2.28;;;;;;;;;;6227371;28;20675;-69
2022/07/09 10:31:21;;;;;;;2.47;1.35;;;;;;;;;;6215502;28;20225;-69
2022/07/09 10:34:50;;;;;;;3.70;1.40;;;;;;;;;;6225343;28;20237;-69
2022/07/09 10:38:11;;;;;;;1.58;1.08;;;;;;;;;;6223281;28;20232;-68
2022/07/09 10:41:32;;;;;;;3.30;1.27;;;;;;;;;;6225255;28;20738;-69
2022/07/09 10:44:54;;;;;;;2.58;1.00;;;;;;;;;;6243416;28;20228;-68
2022/07/09 10:48:15;;;;;;;1.65;1.10;;;;;;;;;;6224623;28;20236;-70
2022/07/09 10:51:38;;;;;;;1.42;0.95;;;;;;;;;;6221493;28;20729;-68
2022/07/09 10:54:58;;;;;;;1.63;0.85;;;;;;;;;;6222698;28;20965;-69
2022/07/09 10:58:19;;;;;;;3.80;1.50;;;;;;;;;;6225753;28;20230;-69
2022/07/09 11:01:42;;;;;;;2.97;1.30;;;;;;;;;;6223168;28;20240;-68
2022/07/09 11:05:03;;;;;;;2.67;1.50;;;;;;;;;;6221794;28;20232;-68
2022/07/09 11:08:23;;;;;;;2.28;1.52;;;;;;;;;;6214944;28;20229;-69
2022/07/09 11:11:44;;;;;;;3.30;1.20;;;;;;;;;;6216313;28;20539;-68
2022/07/09 11:15:05;;;;;;;1.35;1.27;;;;;;;;;;6212583;28;20320;-69
2022/07/09 11:18:28;;;;;;;1.67;1.10;;;;;;;;;;6225099;28;20232;-67
2022/07/09 11:21:49;;;;;;;3.13;1.13;;;;;;;;;;6233054;28;20649;-68
2022/07/09 11:25:09;;;;;;;3.53;1.52;;;;;;;;;;6235213;28;20220;-69
2022/07/09 11:28:30;;;;;;;2.47;1.15;;;;;;;;;;6231972;28;20224;-70
2022/07/09 11:31:51;;;;;;;1.77;1.20;;;;;;;;;;6230787;28;20252;-68
2022/07/09 11:35:13;;;;;;;1.60;1.10;;;;;;;;;;6230350;28;20802;-68
2022/07/09 11:38:34;;;;;;;0.80;0.80;;;;;;;;;;6230154;28;20237;-69
2022/07/09 11:41:54;;;;;;;1.17;0.82;;;;;;;;;;6227333;28;20225;-68
2022/07/09 11:45:15;;;;;;;2.45;1.30;;;;;;;;;;6225982;28;20236;-68
2022/07/09 11:48:36;;;;;;;1.80;1.25;;;;;;;;;;6231006;28;20232;-69
2022/07/09 11:51:57;;;;;;;3.05;1.50;;;;;;;;;;6225260;28;20232;-69
2022/07/09 11:55:19;;;;;;;1.33;0.93;;;;;;;;;;6228956;28;20247;-69
2022/07/09 11:58:49;;;;;;;1.08;0.80;;;;;;;;;;6221963;28;20525;-70
2022/07/09 12:02:10;;;;;;;1.73;0.60;;;;;;;;;;6222317;28;20240;-69
2022/07/09 12:05:31;;;;;;;4.18;1.42;;;;;;;;;;6231016;28;20240;-69
2022/07/09 12:09:00;;;;;;;2.83;1.23;;;;;;;;;;6224165;28;20233;-69
2022/07/09 12:12:21;;;;;;;3.03;1.38;;;;;;;;;;6226672;28;20244;-69
2022/07/09 12:15:41;;;;;;;1.00;0.90;;;;;;;;;;6227582;28;20225;-68
2022/07/09 12:19:03;;;;;;;3.20;1.15;;;;;;;;;;6228287;28;20236;-68
2022/07/09 12:22:24;;;;;;;2.42;1.33;;;;;;;;;;6228102;28;20772;-69
2022/07/09 12:25:47;;;;;;;2.60;1.50;;;;;;;;;;6233272;28;20229;-69
2022/07/09 12:29:08;;;;;;;3.83;1.35;;;;;;;;;;6229457;28;20228;-69
2022/07/09 12:32:28;;;;;;;1.98;1.10;;;;;;;;;;6229672;28;20229;-69
2022/07/09 12:35:49;;;;;;;4.80;1.38;;;;;;;;;;6228721;28;20228;-68
2022/07/09 12:39:09;;;;;;;3.67;1.48;;;;;;;;;;6230825;28;20236;-70
2022/07/09 12:42:31;;;;;;;1.42;0.77;;;;;;;;;;6227402;28;20225;-68
2022/07/09 12:45:51;;;;;;;3.20;1.27;;;;;;;;;;6228248;28;20224;-68
2022/07/09 12:49:12;;;;;;;2.33;1.25;;;;;;;;;;6230191;28;20264;-69
2022/07/09 12:52:33;;;;;;;2.78;1.10;;;;;;;;;;6232342;28;20263;-69
2022/07/09 12:55:54;;;;;;;1.90;1.02;;;;;;;;;;6227652;28;20319;-69
2022/07/09 12:59:16;;;;;;;3.45;1.65;;;;;;;;;;6230455;28;20657;-67
2022/07/09 13:02:36;;;;;;;4.25;1.27;;;;;;;;;;6225643;28;20256;-69
2022/07/09 13:05:56;;;;;;;4.07;1.25;;;;;;;;;;6229177;28;20225;-68
2022/07/09 13:09:18;;;;;;;1.85;0.98;;;;;;;;;;6226984;28;20233;-67
2022/07/09 13:12:38;;;;;;;3.53;1.50;;;;;;;;;;6225132;28;20328;-68
2022/07/09 13:16:00;;;;;;;1.67;1.08;;;;;;;;;;6225691;28;20311;-68
2022/07/09 13:19:21;;;;;;;2.95;1.38;;;;;;;;;;6222801;28;20233;-69
2022/07/09 13:22:42;;;;;;;2.83;1.20;;;;;;;;;;6224903;28;20228;-68
2022/07/09 13:26:03;;;;;;;3.03;0.93;;;;;;;;;;6225214;28;20236;-70
2022/07/09 13:29:23;;;;;;;5.50;1.02;;;;;;;;;;6220276;28;20601;-68
2022/07/09 13:32:45;;;;;;;2.63;1.08;;;;;;;;;;6221391;28;20228;-69
2022/07/09 13:36:06;;;;;;;2.70;0.88;;;;;;;;;;6228789;28;20220;-69
2022/07/09 13:39:27;;;;;;;2.00;1.35;;;;;;;;;;6224829;28;20228;-69
2022/07/09 13:42:47;;;;;;;1.80;0.90;;;;;;;;;;6215583;28;20232;-69
2022/07/09 13:46:08;;;;;;;1.90;1.15;;;;;;;;;;6222343;28;20228;-69
2022/07/09 13:49:30;;;;;;;2.90;1.25;;;;;;;;;;6225609;28;20224;-69
2022/07/09 13:52:51;;;;;;;3.40;0.85;;;;;;;;;;6227453;28;20229;-68
2022/07/09 13:56:12;;;;;;;2.08;0.90;;;;;;;;;;6222414;28;20231;-70
2022/07/09 13:59:33;;;;;;;3.30;1.40;;;;;;;;;;6218280;28;20274;-68
2022/07/09 14:02:54;;;;;;;3.53;1.38;;;;;;;;;;6225439;28;20233;-70
2022/07/09 14:06:16;;;;;;;2.63;1.10;;;;;;;;;;6218240;28;20225;-71
2022/07/09 14:09:37;;;;;;;2.40;1.20;;;;;;;;;;6225821;28;20232;-68
2022/07/09 14:12:57;;;;;;;4.50;1.45;;;;;;;;;;6219687;28;20220;-69
2022/07/09 14:16:18;;;;;;;3.03;1.30;;;;;;;;;;6212652;28;20229;-68
2022/07/09 14:19:38;;;;;;;5.43;1.10;;;;;;;;;;6206442;28;20696;-69
2022/07/09 14:23:00;;;;;;;2.85;1.42;;;;;;;;;;6212106;28;20260;-69
2022/07/09 14:26:21;;;;;;;1.63;0.90;;;;;;;;;;6217334;28;20233;-68
2022/07/09 14:29:41;;;;;;;2.25;1.50;;;;;;;;;;6210314;28;21872;-68
2022/07/09 14:33:02;;;;;;;2.63;1.80;;;;;;;;;;6217016;28;20221;-68
2022/07/09 14:36:22;;;;;;;1.73;1.25;;;;;;;;;;6207199;28;20236;-70
2022/07/09 14:39:44;;;;;;;3.33;1.60;;;;;;;;;;6208099;28;20316;-68
2022/07/09 14:43:06;;;;;;;5.85;1.38;;;;;;;;;;6207769;28;20271;-67
2022/07/09 14:46:26;;;;;;;4.95;1.50;;;;;;;;;;6217196;28;20241;-67
2022/07/09 14:49:47;;;;;;;3.15;1.23;;;;;;;;;;6213948;28;20251;-67
2022/07/09 14:53:07;;;;;;;3.25;1.17;;;;;;;;;;6214933;28;20228;-69
2022/07/09 14:56:29;;;;;;;4.35;1.52;;;;;;;;;;6213133;28;20663;-70
2022/07/09 14:59:50;;;;;;;5.65;1.88;;;;;;;;;;6214197;28;20319;-70
2022/07/09 15:03:11;;;;;;;3.83;2.00;;;;;;;;;;6207650;28;20323;-69
2022/07/09 15:06:31;;;;;;;5.70;2.22;;;;;;;;;;6209827;28;20252;-69
2022/07/09 15:09:53;;;;;;;4.55;1.80;;;;;;;;;;6204142;28;21472;-69
2022/07/09 15:13:15;;;;;;;7.97;1.98;;;;;;;;;;6207660;28;20362;-69
2022/07/09 15:16:36;;;;;;;4.25;2.00;;;;;;;;;;6208835;28;20247;-69
2022/07/09 15:19:57;;;;;;;5.60;1.70;;;;;;;;;;6215861;28;20585;-69
2022/07/09 15:23:17;;;;;;;5.03;1.92;;;;;;;;;;6225901;28;20602;-71
2022/07/09 15:26:38;;;;;;;8.48;1.65;;;;;;;;;;6229016;28;20225;-73
2022/07/09 15:30:00;;;;;;;4.53;1.33;;;;;;;;;;6222014;28;20610;-72
2022/07/09 15:33:21;;;;;;;2.03;1.17;;;;;;;;;;6226218;28;20224;-75
2022/07/09 15:36:41;;;;;;;3.75;1.05;;;;;;;;;;6225835;28;20228;-74
2022/07/09 15:40:02;;;;;;;5.13;1.60;;;;;;;;;;6215005;28;20331;-74
2022/07/09 15:43:23;;;;;;;2.60;1.70;;;;;;;;;;6216925;28;21839;-74
2022/07/09 15:46:45;;;;;;;5.22;1.95;;;;;;;;;;6214883;28;20229;-74
2022/07/09 15:50:06;;;;;;;4.63;1.10;;;;;;;;;;6209166;28;20319;-73
2022/07/09 15:53:27;;;;;;;2.33;0.93;;;;;;;;;;6197922;28;20521;-72
2022/07/09 15:56:48;;;;;;;4.78;1.92;;;;;;;;;;6209005;28;20228;-72
2022/07/09 16:00:10;;;;;;;4.35;1.70;;;;;;;;;;6207302;28;20617;-77
2022/07/09 16:03:32;;;;;;;4.18;1.73;;;;;;;;;;6204574;28;20773;-79
2022/07/09 16:06:52;;;;;;;5.43;2.15;;;;;;;;;;6208748;28;20224;-76
2022/07/09 16:10:13;;;;;;;4.55;1.52;;;;;;;;;;6210810;28;20232;-75
2022/07/09 16:13:33;;;;;;;6.15;2.85;;;;;;;;;;6217957;28;20332;-75
2022/07/09 16:16:54;;;;;;;4.93;1.45;;;;;;;;;;6219585;28;20225;-75
2022/07/09 16:20:16;;;;;;;6.80;1.50;;;;;;;;;;6223688;28;20228;-75
2022/07/09 16:23:36;;;;;;;6.35;1.75;;;;;;;;;;6228110;28;20236;-73
2022/07/09 16:26:57;;;;;;;3.88;1.85;;;;;;;;;;6224943;28;20220;-74
2022/07/09 16:30:17;;;;;;;131.07;122.30;;;;;;;;;;6215114;28;21427;-70
2022/07/09 16:33:38;;;;;;;37.00;33.25;;;;;;;;;;6218586;28;20232;-69
2022/07/09 16:37:00;;;;;;;444.48;404.77;;;;;;;;;;6215380;28;20750;-70
2022/07/09 16:40:21;;;;;;;459.73;413.05;;;;;;;;;;6222993;28;20220;-79
2022/07/09 16:43:42;;;;;;;305.70;274.85;;;;;;;;;;6215948;28;21132;-77
2022/07/09 16:47:02;;;;;;;20.20;18.58;;;;;;;;;;6203089;28;20499;-71
2022/07/09 16:50:23;;;;;;;5.93;2.22;;;;;;;;;;6216103;28;20236;-69
2022/07/09 16:53:47;;;;;;;4.35;2.95;;;;;;;;;;6217766;28;20225;-71
2022/07/09 16:57:08;;;;;;;4.10;1.70;;;;;;;;;;6218323;28;20490;-70
2022/07/09 17:00:30;;;;;;;7.60;2.90;;;;;;;;;;6214855;28;20224;-71
2022/07/09 17:03:51;;;;;;;4.90;2.33;;;;;;;;;;6216900;28;20232;-71
2022/07/09 17:07:11;;;;;;;8.70;3.35;;;;;;;;;;6220652;28;20606;-70
2022/07/09 17:10:33;;;;;;;6.38;3.90;;;;;;;;;;6218122;28;20693;-70
2022/07/09 17:13:54;;;;;;;10.02;7.32;;;;;;;;;;6225331;28;20320;-71
2022/07/09 17:17:14;;;;;;;3.50;2.10;;;;;;;;;;6219765;28;20491;-71
2022/07/09 17:20:36;;;;;;;5.03;1.85;;;;;;;;;;6230806;28;20233;-72
2022/07/09 17:23:57;;;;;;;6.90;2.45;;;;;;;;;;6221261;28;20236;-71
2022/07/09 17:27:19;;;;;;;6.05;3.35;;;;;;;;;;6224387;28;20478;-71
2022/07/09 17:30:39;;;;;;;4.70;2.33;;;;;;;;;;6222041;28;20228;-70
2022/07/09 17:34:00;;;;;;;5.30;2.15;;;;;;;;;;6229456;28;20229;-71
2022/07/09 17:37:20;;;;;;;5.70;1.50;;;;;;;;;;6222723;28;20235;-71
2022/07/09 17:40:41;;;;;;;6.68;2.58;;;;;;;;;;6223361;28;20232;-71
2022/07/09 17:44:03;;;;;;;5.90;2.42;;;;;;;;;;6225187;28;20677;-72
2022/07/09 17:47:25;;;;;;;6.82;1.77;;;;;;;;;;6217240;28;20353;-72
2022/07/09 17:50:46;;;;;;;9.55;1.67;;;;;;;;;;6212368;28;20509;-70
2022/07/09 17:54:06;;;;;;;3.72;1.98;;;;;;;;;;6209144;28;20677;-72
2022/07/09 17:57:26;;;;;;;4.57;2.33;;;;;;;;;;6222141;28;20228;-70
2022/07/09 18:00:48;;;;;;;5.68;1.45;;;;;;;;;;6230413;28;20224;-70
2022/07/09 18:04:09;;;;;;;9.38;3.08;;;;;;;;;;6220859;28;21410;-71
2022/07/09 18:07:29;;;;;;;3.75;1.50;;;;;;;;;;6226331;28;20236;-70
2022/07/09 18:10:50;;;;;;;5.72;1.65;;;;;;;;;;6231307;28;20224;-70
2022/07/09 18:14:10;;;;;;;6.90;1.85;;;;;;;;;;6228391;28;20228;-72
2022/07/09 18:17:33;;;;;;;4.13;1.75;;;;;;;;;;6226196;28;20634;-71
2022/07/09 18:20:54;;;;;;;2.30;1.33;;;;;;;;;;6225530;28;20224;-71
2022/07/09 18:24:14;;;;;;;3.70;2.33;;;;;;;;;;6218245;28;20511;-69
2022/07/09 18:27:35;;;;;;;2.78;1.45;;;;;;;;;;6216221;28;20228;-70
2022/07/09 18:30:56;;;;;;;4.32;1.48;;;;;;;;;;6218815;28;21007;-70
2022/07/09 18:34:18;;;;;;;3.30;1.42;;;;;;;;;;6220665;28;20224;-70
2022/07/09 18:37:39;;;;;;;5.97;1.40;;;;;;;;;;6222693;28;20236;-69
2022/07/09 18:40:59;;;;;;;6.53;1.92;;;;;;;;;;6221042;28;20312;-70
2022/07/09 18:44:20;;;;;;;5.50;2.10;;;;;;;;;;6225289;28;22292;-69
2022/07/09 18:47:40;;;;;;;4.72;1.63;;;;;;;;;;6219711;28;20307;-69
2022/07/09 18:51:02;;;;;;;6.07;2.60;;;;;;;;;;6223287;28;20224;-69
2022/07/09 18:54:23;;;;;;;2.90;1.13;;;;;;;;;;6224549;28;20315;-70
2022/07/09 18:57:44;;;;;;;6.65;1.77;;;;;;;;;;6222816;28;20233;-70
2022/07/09 19:01:04;;;;;;;4.60;1.42;;;;;;;;;;6227580;28;20323;-70
2022/07/09 19:04:26;;;;;;;4.53;1.98;;;;;;;;;;6223774;28;20319;-69
2022/07/09 19:07:48;;;;;;;3.67;1.65;;;;;;;;;;6225181;28;20578;-70
2022/07/09 19:11:09;;;;;;;4.97;1.60;;;;;;;;;;6227552;28;20264;-70
2022/07/09 19:14:29;;;;;;;4.32;1.67;;;;;;;;;;6224322;28;20254;-70
2022/07/09 19:17:50;;;;;;;3.85;1.65;;;;;;;;;;6227316;28;20232;-69
2022/07/09 19:21:11;;;;;;;4.97;1.50;;;;;;;;;;6224593;28;20225;-69
2022/07/09 19:24:33;;;;;;;4.43;2.65;;;;;;;;;;6225411;28;20236;-69
2022/07/09 19:27:53;;;;;;;5.00;1.95;;;;;;;;;;6225831;28;20225;-69
2022/07/09 19:34:52;;;;;;;6.22;2.22;;;;;;;;;;6220876;28;20555;-70
2022/07/09 19:38:13;;;;;;;4.68;1.50;;;;;;;;;;6228409;28;20255;-70
2022/07/09 19:41:35;;;;;;;3.50;1.60;;;;;;;;;;6227383;28;20237;-69
2022/07/09 19:44:56;;;;;;;7.38;1.77;;;;;;;;;;6225074;28;20264;-71
2022/07/09 19:48:16;;;;;;;7.25;2.55;;;;;;;;;;6221158;28;20228;-70
2022/07/09 19:51:37;;;;;;;8.45;1.63;;;;;;;;;;6226700;28;20232;-69
2022/07/09 19:54:58;;;;;;;6.55;1.92;;;;;;;;;;6224171;28;21053;-71
2022/07/09 19:58:20;;;;;;;5.60;1.58;;;;;;;;;;6225820;28;20225;-70
2022/07/09 20:01:41;;;;;;;3.22;1.38;;;;;;;;;;6222736;28;20236;-70
2022/07/09 20:05:01;;;;;;;5.85;1.40;;;;;;;;;;6216036;28;20232;-71
2022/07/09 20:08:22;;;;;;;3.80;1.70;;;;;;;;;;6225178;28;21103;-71
2022/07/09 20:11:43;;;;;;;3.28;1.92;;;;;;;;;;6228785;28;20232;-72
2022/07/09 20:15:05;;;;;;;3.45;1.58;;;;;;;;;;6227353;28;20241;-71
2022/07/09 20:18:26;;;;;;;2.97;1.55;;;;;;;;;;6227541;28;20622;-70
2022/07/09 20:21:46;;;;;;;5.10;1.75;;;;;;;;;;6229159;28;20229;-71
2022/07/09 20:25:07;;;;;;;5.47;1.33;;;;;;;;;;6222291;28;22227;-70
2022/07/09 20:28:28;;;;;;;5.95;1.70;;;;;;;;;;6229404;28;20236;-70
2022/07/09 20:31:50;;;;;;;4.18;1.40;;;;;;;;;;6232125;28;20300;-71